createdAt,value
2018-07-25T00:00:13.130Z,96764.02
2018-07-25T00:02:42.307Z,96760.27
2018-07-25T00:05:11.599Z,96757.11
2018-07-25T00:07:41.019Z,96759.86
2018-07-25T00:10:10.746Z,96754.77
2018-07-25T00:12:40.102Z,96759.96
2018-07-25T00:15:09.294Z,96766.89
2018-07-25T00:17:38.995Z,96764.99
2018-07-25T00:20:08.206Z,96757.09
2018-07-25T00:22:37.579Z,96762.83
2018-07-25T00:25:06.820Z,96761.05
2018-07-25T00:27:35.990Z,96761.34
2018-07-25T00:30:05.684Z,96760.11
2018-07-25T00:32:35.147Z,96758.50
2018-07-25T00:35:04.725Z,96763.52
2018-07-25T00:37:34.185Z,96759.94
2018-07-25T00:40:03.418Z,96752.64
2018-07-25T00:42:32.634Z,96755.50
2018-07-25T00:45:01.856Z,96750.23
2018-07-25T00:47:31.119Z,96753.87
2018-07-25T00:50:00.306Z,96746.36
2018-07-25T00:52:29.491Z,96748.53
2018-07-25T00:54:58.702Z,96752.48
2018-07-25T00:57:27.876Z,96748.88
2018-07-25T00:59:57.118Z,96749.80
2018-07-25T01:02:26.332Z,96746.79
2018-07-25T01:04:55.650Z,96749.50
2018-07-25T01:07:24.946Z,96750.11
2018-07-25T01:09:54.107Z,96754.09
2018-07-25T01:12:23.315Z,96748.16
2018-07-25T01:14:52.539Z,96754.69
2018-07-25T01:17:21.731Z,96753.71
2018-07-25T01:19:50.981Z,96754.56
2018-07-25T01:22:20.148Z,96752.48
2018-07-25T01:24:49.391Z,96748.33
2018-07-25T01:27:18.632Z,96749.84
2018-07-25T01:29:47.791Z,96743.27
2018-07-25T01:32:16.994Z,96752.41
2018-07-25T01:34:46.191Z,96748.58
2018-07-25T01:37:15.487Z,96748.79
2018-07-25T01:39:44.658Z,96749.27
2018-07-25T01:42:14.251Z,96748.41
2018-07-25T01:44:43.758Z,96744.71
2018-07-25T01:47:13.620Z,96750.62
2018-07-25T01:49:42.917Z,96746.19
2018-07-25T01:52:12.103Z,96748.78
2018-07-25T01:54:41.295Z,96754.34
2018-07-25T01:57:10.514Z,96749.08
2018-07-25T01:59:39.694Z,96749.75
2018-07-25T02:02:09.139Z,96753.81
2018-07-25T02:04:38.326Z,96753.14
2018-07-25T02:07:07.555Z,96754.07
2018-07-25T02:09:36.931Z,96760.09
2018-07-25T02:12:07.110Z,96759.45
2018-07-25T02:14:36.274Z,96762.89
2018-07-25T02:17:05.499Z,96763.44
2018-07-25T02:19:34.744Z,96765.43
2018-07-25T02:22:04.390Z,96765.73
2018-07-25T02:24:33.542Z,96765.95
2018-07-25T02:27:03.206Z,96764.48
2018-07-25T02:29:32.600Z,96769.18
2018-07-25T02:32:01.874Z,96771.61
2018-07-25T02:34:31.155Z,96766.80
2018-07-25T02:37:00.555Z,96771.24
2018-07-25T02:39:29.720Z,96779.38
2018-07-25T02:41:59.201Z,96778.47
2018-07-25T02:44:28.492Z,96782.16
2018-07-25T02:46:57.715Z,96779.88
2018-07-25T02:49:27.166Z,96785.72
2018-07-25T02:51:56.494Z,96788.42
2018-07-25T02:54:25.648Z,96789.64
2018-07-25T02:56:54.928Z,96796.58
2018-07-25T02:59:24.015Z,96790.94
2018-07-25T03:01:53.243Z,96795.81
2018-07-25T03:04:22.407Z,96793.80
2018-07-25T03:06:51.631Z,96800.09
2018-07-25T03:09:20.802Z,96797.71
2018-07-25T03:11:50.006Z,96800.27
2018-07-25T03:14:19.150Z,96795.36
2018-07-25T03:16:48.614Z,96794.66
2018-07-25T03:19:17.775Z,96800.78
2018-07-25T03:21:47.198Z,96799.17
2018-07-25T03:24:16.364Z,96802.23
2018-07-25T03:26:45.555Z,96805.30
2018-07-25T03:29:14.748Z,96808.27
2018-07-25T03:31:44.383Z,96809.02
2018-07-25T03:34:13.634Z,96806.56
2018-07-25T03:36:43.110Z,96807.30
2018-07-25T03:39:12.295Z,96803.69
2018-07-25T03:41:41.487Z,96804.50
2018-07-25T03:44:10.658Z,96805.30
2018-07-25T03:46:40.240Z,96804.05
2018-07-25T03:49:09.507Z,96806.50
2018-07-25T03:51:38.703Z,96810.38
2018-07-25T03:54:08.065Z,96812.44
2018-07-25T03:56:37.258Z,96808.20
2018-07-25T03:59:06.538Z,96817.17
2018-07-25T04:01:37.124Z,96813.08
2018-07-25T04:04:06.299Z,96812.83
2018-07-25T04:06:35.470Z,96816.44
2018-07-25T04:09:06.542Z,96817.15
2018-07-25T04:11:35.671Z,96817.77
2018-07-25T04:14:04.874Z,96819.50
2018-07-25T04:16:34.070Z,96823.80
2018-07-25T04:19:03.608Z,96825.80
2018-07-25T04:21:32.836Z,96825.44
2018-07-25T04:24:02.028Z,96827.41
2018-07-25T04:26:31.210Z,96827.30
2018-07-25T04:29:01.911Z,96826.91
2018-07-25T04:31:31.223Z,96825.94
2018-07-25T04:34:00.814Z,96820.08
2018-07-25T04:36:30.372Z,96827.20
2018-07-25T04:38:59.619Z,96833.28
2018-07-25T04:41:29.034Z,96836.29
2018-07-25T04:43:58.233Z,96833.36
2018-07-25T04:46:27.510Z,96841.35
2018-07-25T04:48:56.823Z,96840.55
2018-07-25T04:51:26.371Z,96837.70
2018-07-25T04:53:55.565Z,96836.55
2018-07-25T04:56:24.742Z,96841.01
2018-07-25T04:58:53.960Z,96840.75
2018-07-25T05:01:23.179Z,96843.11
2018-07-25T05:03:52.411Z,96849.28
2018-07-25T05:06:21.611Z,96846.69
2018-07-25T05:08:50.798Z,96848.20
2018-07-25T05:11:20.407Z,96851.52
2018-07-25T05:13:49.738Z,96854.22
2018-07-25T05:16:18.910Z,96856.93
2018-07-25T05:18:48.123Z,96853.41
2018-07-25T05:21:17.319Z,96851.88
2018-07-25T05:23:46.534Z,96860.26
2018-07-25T05:26:15.826Z,96852.91
2018-07-25T05:28:45.127Z,96855.33
2018-07-25T05:31:14.351Z,96859.05
2018-07-25T05:33:43.595Z,96856.97
2018-07-25T05:36:12.798Z,96858.51
2018-07-25T05:38:41.999Z,96869.73
2018-07-25T05:41:11.179Z,96865.77
2018-07-25T05:43:40.383Z,96865.63
2018-07-25T05:46:09.622Z,96864.66
2018-07-25T05:48:39.242Z,96868.41
2018-07-25T05:51:08.442Z,96864.48
2018-07-25T05:53:37.854Z,96865.26
2018-07-25T05:56:07.858Z,96869.03
2018-07-25T05:58:37.233Z,96860.16
2018-07-25T06:01:06.436Z,96857.95
2018-07-25T06:03:35.679Z,96861.52
2018-07-25T06:06:04.945Z,96856.47
2018-07-25T06:08:34.146Z,96861.37
2018-07-25T06:11:03.402Z,96859.25
2018-07-25T06:13:32.604Z,96855.27
2018-07-25T06:16:01.792Z,96861.27
2018-07-25T06:18:31.044Z,96863.66
2018-07-25T06:21:00.193Z,96866.09
2018-07-25T06:23:29.398Z,96866.59
2018-07-25T06:25:58.954Z,96869.55
2018-07-25T06:28:28.527Z,96872.98
2018-07-25T06:30:57.706Z,96865.20
2018-07-25T06:33:27.021Z,96869.63
2018-07-25T06:35:56.302Z,96861.86
2018-07-25T06:38:25.983Z,96871.17
2018-07-25T06:40:55.187Z,96868.72
2018-07-25T06:43:24.463Z,96870.27
2018-07-25T06:45:53.592Z,96869.52
2018-07-25T06:48:22.790Z,96870.36
2018-07-25T06:50:52.016Z,96877.81
2018-07-25T06:53:21.388Z,96874.32
2018-07-25T06:55:50.567Z,96877.50
2018-07-25T06:58:20.266Z,96877.47
2018-07-25T07:00:49.435Z,96884.61
2018-07-25T07:03:18.964Z,96878.25
2018-07-25T07:05:48.355Z,96889.94
2018-07-25T07:08:17.531Z,96887.94
2018-07-25T07:10:46.718Z,96891.56
2018-07-25T07:13:15.928Z,96890.25
2018-07-25T07:15:45.403Z,96896.16
2018-07-25T07:18:14.615Z,96898.94
2018-07-25T07:20:43.827Z,96897.11
2018-07-25T07:23:13.022Z,96896.12
2018-07-25T07:25:42.268Z,96888.64
2018-07-25T07:28:11.451Z,96899.58
2018-07-25T07:30:40.676Z,96893.38
2018-07-25T07:33:10.215Z,96892.52
2018-07-25T07:35:39.626Z,96894.31
2018-07-25T07:38:08.856Z,96894.88
2018-07-25T07:40:38.356Z,96893.11
2018-07-25T07:43:07.902Z,96902.64
2018-07-25T07:45:37.400Z,96897.72
2018-07-25T07:48:06.746Z,96894.38
2018-07-25T07:50:35.951Z,96896.28
2018-07-25T07:53:05.181Z,96893.79
2018-07-25T07:55:35.271Z,96892.00
2018-07-25T07:58:04.512Z,96889.83
2018-07-25T08:00:33.691Z,96896.66
2018-07-25T08:03:06.779Z,96896.89
2018-07-25T08:05:36.839Z,96895.62
2018-07-25T08:08:06.034Z,96898.42
2018-07-25T08:10:35.298Z,96898.58
2018-07-25T08:13:04.898Z,96893.55
2018-07-25T08:15:34.059Z,96890.83
2018-07-25T08:18:03.599Z,96893.28
2018-07-25T08:20:32.702Z,96891.61
2018-07-25T08:23:02.043Z,96892.80
2018-07-25T08:25:31.218Z,96893.93
2018-07-25T08:28:00.392Z,96886.97
2018-07-25T08:30:29.576Z,96886.58
2018-07-25T08:32:58.752Z,96889.66
2018-07-25T08:35:28.235Z,96889.19
2018-07-25T08:37:57.406Z,96888.41
2018-07-25T08:40:26.600Z,96888.43
2018-07-25T08:42:55.791Z,96885.26
2018-07-25T08:45:25.003Z,96889.88
2018-07-25T08:47:54.182Z,96879.08
2018-07-25T08:50:24.106Z,96889.23
2018-07-25T08:52:53.646Z,96880.54
2018-07-25T08:55:22.731Z,96888.02
2018-07-25T08:57:52.088Z,96886.78
2018-07-25T09:00:21.257Z,96886.41
2018-07-25T09:02:50.395Z,96888.57
2018-07-25T09:05:19.570Z,96890.73
2018-07-25T09:07:48.932Z,96883.03
2018-07-25T09:10:18.115Z,96887.11
2018-07-25T09:12:47.324Z,96886.34
2018-07-25T09:15:16.447Z,96887.66
2018-07-25T09:17:45.610Z,96889.23
2018-07-25T09:20:14.796Z,96884.53
2018-07-25T09:22:44.059Z,96882.25
2018-07-25T09:25:13.350Z,96883.09
2018-07-25T09:27:42.492Z,96888.09
2018-07-25T09:30:11.903Z,96887.55
2018-07-25T09:32:41.051Z,96886.23
2018-07-25T09:35:10.243Z,96880.55
2018-07-25T09:37:39.499Z,96883.69
2018-07-25T09:40:08.999Z,96880.17
2018-07-25T09:42:38.507Z,96885.25
2018-07-25T09:45:08.342Z,96885.47
2018-07-25T09:47:37.824Z,96884.60
2018-07-25T09:50:08.091Z,96881.07
2018-07-25T09:52:37.647Z,96871.70
2018-07-25T09:55:07.475Z,96878.75
2018-07-25T09:57:36.963Z,96874.48
2018-07-25T10:00:08.472Z,96869.27
2018-07-25T10:02:38.072Z,96867.55
2018-07-25T10:05:07.690Z,96865.56
2018-07-25T10:07:37.177Z,96862.22
2018-07-25T10:10:06.946Z,96866.63
2018-07-25T10:12:36.087Z,96865.45
2018-07-25T10:15:05.536Z,96862.27
2018-07-25T10:17:34.695Z,96858.73
2018-07-25T10:20:03.943Z,96857.31
2018-07-25T10:22:33.450Z,96850.51
2018-07-25T10:25:02.647Z,96856.74
2018-07-25T10:27:31.907Z,96853.42
2018-07-25T10:30:00.987Z,96865.48
2018-07-25T10:32:30.539Z,96856.66
2018-07-25T10:34:59.695Z,96856.04
2018-07-25T10:37:28.852Z,96857.71
2018-07-25T10:39:58.183Z,96855.18
2018-07-25T10:42:27.375Z,96854.69
2018-07-25T10:44:56.667Z,96851.21
2018-07-25T10:47:25.839Z,96853.66
2018-07-25T10:49:55.183Z,96851.78
2018-07-25T10:52:24.524Z,96844.61
2018-07-25T10:54:53.712Z,96839.53
2018-07-25T10:57:23.188Z,96848.43
2018-07-25T10:59:52.392Z,96851.31
2018-07-25T11:02:22.212Z,96842.58
2018-07-25T11:04:51.487Z,96848.88
2018-07-25T11:07:20.647Z,96844.28
2018-07-25T11:09:49.983Z,96845.10
2018-07-25T11:12:19.171Z,96836.80
2018-07-25T11:14:48.363Z,96837.29
2018-07-25T11:17:17.504Z,96837.74
2018-07-25T11:19:46.718Z,96843.03
2018-07-25T11:22:16.154Z,96839.45
2018-07-25T11:24:45.352Z,96830.84
2018-07-25T11:27:14.699Z,96825.86
2018-07-25T11:29:44.115Z,96825.59
2018-07-25T11:32:13.283Z,96824.22
2018-07-25T11:34:42.454Z,96829.94
2018-07-25T11:37:11.623Z,96821.88
2018-07-25T11:39:40.792Z,96823.24
2018-07-25T11:42:10.223Z,96826.99
2018-07-25T11:44:39.619Z,96820.17
2018-07-25T11:47:08.770Z,96819.23
2018-07-25T11:49:37.948Z,96823.48
2018-07-25T11:52:07.627Z,96828.16
2018-07-25T11:54:36.798Z,96820.53
2018-07-25T11:57:06.196Z,96828.27
2018-07-25T11:59:35.359Z,96829.94
2018-07-25T12:02:04.674Z,96823.56
2018-07-25T12:04:34.224Z,96819.52
2018-07-25T12:07:03.394Z,96821.85
2018-07-25T12:09:32.963Z,96820.70
2018-07-25T12:12:02.151Z,96824.52
2018-07-25T12:14:31.286Z,96823.88
2018-07-25T12:17:00.459Z,96818.25
2018-07-25T12:19:29.619Z,96818.91
2018-07-25T12:21:58.800Z,96805.08
2018-07-25T12:24:28.016Z,96814.13
2018-07-25T12:26:57.316Z,96811.02
2018-07-25T12:29:26.419Z,96807.89
2018-07-25T12:31:55.702Z,96813.67
2018-07-25T12:36:54.643Z,96803.70
2018-07-25T12:39:24.031Z,96812.83
2018-07-25T12:41:53.227Z,96811.08
2018-07-25T12:44:23.244Z,96803.92
2018-07-25T12:46:52.645Z,96800.01
2018-07-25T12:49:21.839Z,96801.11
2018-07-25T12:51:51.028Z,96798.50
2018-07-25T12:54:20.205Z,96788.56
2018-07-25T12:56:49.371Z,96796.25
2018-07-25T12:59:18.544Z,96792.70
2018-07-25T13:01:48.355Z,96789.23
2018-07-25T13:04:17.517Z,96792.55
2018-07-25T13:06:46.750Z,96793.07
2018-07-25T13:09:15.987Z,96783.89
2018-07-25T13:11:45.124Z,96784.97
2018-07-25T13:14:14.292Z,96788.47
2018-07-25T13:16:43.682Z,96786.95
2018-07-25T13:19:12.866Z,96789.16
2018-07-25T13:21:42.059Z,96783.64
2018-07-25T13:24:11.223Z,96782.20
2018-07-25T13:26:40.412Z,96781.20
2018-07-25T13:29:09.601Z,96788.08
2018-07-25T13:31:38.767Z,96786.17
2018-07-25T13:34:08.128Z,96778.37
2018-07-25T13:36:37.638Z,96786.06
2018-07-25T13:39:07.938Z,96781.49
2018-07-25T13:41:37.123Z,96782.83
2018-07-25T13:44:07.103Z,96784.37
2018-07-25T13:46:36.979Z,96767.27
2018-07-25T13:49:06.179Z,96768.44
2018-07-25T13:51:35.351Z,96780.28
2018-07-25T13:54:04.599Z,96770.38
2018-07-25T13:56:33.995Z,96768.41
2018-07-25T13:59:03.314Z,96768.66
2018-07-25T14:01:32.492Z,96764.33
2018-07-25T14:04:01.772Z,96764.15
2018-07-25T14:06:31.707Z,96761.55
2018-07-25T14:09:00.867Z,96761.17
2018-07-25T14:11:30.083Z,96760.67
2018-07-25T14:13:59.299Z,96753.20
2018-07-25T14:16:28.524Z,96758.91
2018-07-25T14:18:58.186Z,96763.31
2018-07-25T14:21:27.687Z,96760.13
2018-07-25T14:23:57.033Z,96755.80
2018-07-25T14:26:26.035Z,96750.42
2018-07-25T14:28:55.247Z,96755.00
2018-07-25T14:31:24.367Z,96743.34
2018-07-25T14:33:53.791Z,96739.94
2018-07-25T14:36:23.349Z,96740.27
2018-07-25T14:38:53.266Z,96740.71
2018-07-25T14:41:22.561Z,96739.99
2018-07-25T14:43:51.843Z,96738.97
2018-07-25T14:46:21.257Z,96736.39
2018-07-25T14:48:50.403Z,96732.89
2018-07-25T14:51:19.650Z,96734.75
2018-07-25T14:53:48.752Z,96744.47
2018-07-25T14:56:17.931Z,96751.30
2018-07-25T14:58:48.007Z,96746.66
2018-07-25T15:01:17.234Z,96748.24
2018-07-25T15:03:46.483Z,96742.50
2018-07-25T15:06:15.679Z,96740.75
2018-07-25T15:08:44.914Z,96735.38
2018-07-25T15:11:14.088Z,96735.22
2018-07-25T15:13:44.270Z,96735.08
2018-07-25T15:16:13.466Z,96734.00
2018-07-25T15:18:42.887Z,96725.28
2018-07-25T15:21:12.099Z,96725.41
2018-07-25T15:23:52.597Z,96727.17
2018-07-25T15:26:22.249Z,96724.53
2018-07-25T15:28:51.457Z,96722.58
2018-07-25T15:31:20.710Z,96715.52
2018-07-25T15:33:49.882Z,96717.70
2018-07-25T15:36:32.454Z,96719.66
2018-07-25T15:39:02.567Z,96714.52
2018-07-25T15:41:31.739Z,96720.98
2018-07-25T15:44:01.381Z,96716.84
2018-07-25T15:46:30.623Z,96713.09
2018-07-25T15:48:59.883Z,96710.75
2018-07-25T15:51:29.067Z,96717.89
2018-07-25T15:53:58.210Z,96714.59
2018-07-25T15:56:27.578Z,96709.95
2018-07-25T15:58:56.815Z,96714.88
2018-07-25T16:01:25.999Z,96712.98
2018-07-25T16:03:55.519Z,96715.37
2018-07-25T16:06:24.741Z,96711.54
2018-07-25T16:08:54.171Z,96712.39
2018-07-25T16:11:23.607Z,96719.46
2018-07-25T16:13:53.089Z,96711.54
2018-07-25T16:16:22.269Z,96709.41
2018-07-25T16:18:51.688Z,96705.24
2018-07-25T16:21:21.375Z,96702.63
2018-07-25T16:23:50.563Z,96708.49
2018-07-25T16:26:19.870Z,96706.91
2018-07-25T16:28:51.558Z,96699.64
2018-07-25T16:31:23.762Z,96698.95
2018-07-25T16:33:52.998Z,96699.25
2018-07-25T16:36:22.148Z,96700.85
2018-07-25T16:38:52.355Z,96692.14
2018-07-25T16:41:21.521Z,96696.37
2018-07-25T16:43:52.309Z,96696.66
2018-07-25T16:46:21.491Z,96696.92
2018-07-25T16:48:50.668Z,96688.38
2018-07-25T16:51:19.823Z,96693.27
2018-07-25T16:53:49.027Z,96693.37
2018-07-25T16:56:18.175Z,96694.20
2018-07-25T16:58:47.509Z,96697.53
2018-07-25T17:01:16.711Z,96687.94
2018-07-25T17:03:45.894Z,96691.30
2018-07-25T17:06:15.088Z,96692.09
2018-07-25T17:08:44.279Z,96696.83
2018-07-25T17:11:13.491Z,96696.62
2018-07-25T17:13:42.762Z,96695.72
2018-07-25T17:16:12.696Z,96701.33
2018-07-25T17:18:41.916Z,96702.25
2018-07-25T17:21:11.318Z,96694.62
2018-07-25T17:23:40.487Z,96700.37
2018-07-25T17:26:09.708Z,96704.99
2018-07-25T17:28:39.103Z,96706.58
2018-07-25T17:31:08.283Z,96702.20
2018-07-25T17:33:37.463Z,96703.09
2018-07-25T17:36:06.627Z,96703.23
2018-07-25T17:38:35.843Z,96701.04
2018-07-25T17:41:05.099Z,96701.00
2018-07-25T17:43:34.643Z,96700.59
2018-07-25T17:46:03.868Z,96703.48
2018-07-25T17:48:33.026Z,96705.92
2018-07-25T17:51:02.174Z,96708.56
2018-07-25T17:53:31.735Z,96717.41
2018-07-25T17:56:00.883Z,96717.45
2018-07-25T17:58:30.087Z,96719.86
2018-07-25T18:00:59.311Z,96731.28
2018-07-25T18:03:28.501Z,96730.48
2018-07-25T18:05:57.631Z,96730.72
2018-07-25T18:08:26.851Z,96736.52
2018-07-25T18:10:56.080Z,96743.12
2018-07-25T18:13:30.407Z,96743.77
2018-07-25T18:16:00.311Z,96750.86
2018-07-25T18:18:29.493Z,96753.69
2018-07-25T18:20:59.425Z,96747.72
2018-07-25T18:23:28.959Z,96758.88
2018-07-25T18:25:58.146Z,96750.58
2018-07-25T18:28:27.309Z,96758.11
2018-07-25T18:30:56.543Z,96758.50
2018-07-25T18:33:25.754Z,96768.23
2018-07-25T18:35:54.955Z,96761.29
2018-07-25T18:38:24.748Z,96773.00
2018-07-25T18:40:53.926Z,96768.84
2018-07-25T18:43:23.110Z,96769.25
2018-07-25T18:45:52.488Z,96770.02
2018-07-25T18:48:21.882Z,96775.20
2018-07-25T18:50:51.447Z,96774.59
2018-07-25T18:53:20.720Z,96781.46
2018-07-25T18:55:49.891Z,96780.84
2018-07-25T18:58:19.063Z,96780.38
2018-07-25T19:00:48.232Z,96781.27
2018-07-25T19:03:17.448Z,96786.52
2018-07-25T19:05:46.606Z,96791.82
2018-07-25T19:08:15.784Z,96784.69
2018-07-25T19:10:44.959Z,96793.94
2018-07-25T19:13:20.160Z,96798.02
2018-07-25T19:15:49.493Z,96805.30
2018-07-25T19:18:20.130Z,96807.99
2018-07-25T19:20:49.531Z,96800.86
2018-07-25T19:23:19.096Z,96811.72
2018-07-25T19:25:49.175Z,96810.45
2018-07-25T19:28:18.346Z,96814.24
2018-07-25T19:30:47.523Z,96816.06
2018-07-25T19:33:16.751Z,96820.56
2018-07-25T19:35:45.947Z,96823.67
2018-07-25T19:38:15.144Z,96823.59
2018-07-25T19:40:44.295Z,96824.06
2018-07-25T19:43:13.502Z,96824.46
2018-07-25T19:45:42.653Z,96829.03
2018-07-25T19:48:11.843Z,96843.91
2018-07-25T19:50:41.435Z,96848.02
2018-07-25T19:53:11.138Z,96845.89
2018-07-25T19:55:40.371Z,96837.74
2018-07-25T19:58:09.620Z,96839.53
2018-07-25T20:00:39.059Z,96838.78
2018-07-25T20:03:08.600Z,96840.47
2018-07-25T20:05:37.763Z,96839.61
2018-07-25T20:08:06.938Z,96839.25
2018-07-25T20:10:36.088Z,96852.34
2018-07-25T20:13:05.240Z,96849.30
2018-07-25T20:15:39.650Z,96847.55
2018-07-25T20:18:09.964Z,96854.11
2018-07-25T20:20:40.190Z,96854.98
2018-07-25T20:23:09.363Z,96853.16
2018-07-25T20:25:39.048Z,96854.59
2018-07-25T20:28:10.287Z,96845.66
2018-07-25T20:30:39.806Z,96854.13
2018-07-25T20:33:08.967Z,96856.67
2018-07-25T20:35:38.279Z,96854.72
2018-07-25T20:38:07.451Z,96856.28
2018-07-25T20:40:36.644Z,96855.18
2018-07-25T20:43:05.950Z,96856.70
2018-07-25T20:45:35.431Z,96847.98
2018-07-25T20:48:04.618Z,96852.67
2018-07-25T20:50:33.808Z,96855.77
2018-07-25T20:53:03.314Z,96858.59
2018-07-25T20:55:32.813Z,96862.70
2018-07-25T20:58:01.967Z,96861.28
2018-07-25T21:00:34.644Z,96858.31
2018-07-25T21:03:05.339Z,96857.64
2018-07-25T21:05:34.615Z,96858.59
2018-07-25T21:08:03.794Z,96856.69
2018-07-25T21:10:32.992Z,96856.95
2018-07-25T21:13:02.409Z,96857.43
2018-07-25T21:15:31.597Z,96857.66
2018-07-25T21:18:00.752Z,96849.87
2018-07-25T21:20:29.927Z,96848.27
2018-07-25T21:22:59.106Z,96849.75
2018-07-25T21:25:28.600Z,96853.50
2018-07-25T21:27:57.839Z,96852.92
2018-07-25T21:30:27.119Z,96858.45
2018-07-25T21:32:56.394Z,96868.84
2018-07-25T21:35:25.567Z,96869.11
2018-07-25T21:37:54.743Z,96864.53
2018-07-25T21:40:23.922Z,96863.48
2018-07-25T21:42:53.291Z,96855.75
2018-07-25T21:45:22.476Z,96857.47
2018-07-25T21:47:51.615Z,96859.88
2018-07-25T21:50:20.799Z,96868.70
2018-07-25T21:52:49.958Z,96865.73
2018-07-25T21:55:19.141Z,96857.23
2018-07-25T21:57:49.543Z,96867.61
2018-07-25T22:00:18.725Z,96863.60
2018-07-25T22:02:48.008Z,96859.63
2018-07-25T22:05:17.503Z,96866.91
2018-07-25T22:07:47.219Z,96862.50
2018-07-25T22:10:16.423Z,96852.08
2018-07-25T22:12:45.588Z,96854.41
2018-07-25T22:15:14.775Z,96856.41
2018-07-25T22:17:43.960Z,96844.48
2018-07-25T22:20:13.491Z,96858.97
2018-07-25T22:22:42.950Z,96856.03
2018-07-25T22:25:12.128Z,96862.34
2018-07-25T22:27:44.307Z,96855.60
2018-07-25T22:30:13.620Z,96856.60
2018-07-25T22:32:42.759Z,96855.92
2018-07-25T22:35:12.670Z,96856.66
2018-07-25T22:37:42.646Z,96854.71
2018-07-25T22:40:11.827Z,96855.14
2018-07-25T22:42:40.986Z,96850.86
2018-07-25T22:45:10.167Z,96856.05
2018-07-25T22:47:40.051Z,96849.64
2018-07-25T22:50:09.572Z,96851.02
2018-07-25T22:52:38.734Z,96852.58
2018-07-25T22:55:08.103Z,96853.16
2018-07-25T22:57:37.288Z,96856.17
2018-07-25T23:00:06.888Z,96852.01
2018-07-25T23:02:36.104Z,96851.16
2018-07-25T23:05:05.611Z,96841.13
2018-07-25T23:07:34.999Z,96840.94
2018-07-25T23:10:04.780Z,96844.48
2018-07-25T23:12:34.062Z,96846.16
2018-07-25T23:15:03.248Z,96848.11
2018-07-25T23:17:32.409Z,96852.54
2018-07-25T23:20:02.012Z,96852.01
2018-07-25T23:22:38.999Z,96849.97
2018-07-25T23:25:08.183Z,96848.64
2018-07-25T23:27:37.675Z,96852.03
2018-07-25T23:30:06.859Z,96844.56
2018-07-25T23:32:36.008Z,96850.48
2018-07-25T23:35:05.837Z,96854.41
2018-07-25T23:37:34.981Z,96845.75
2018-07-25T23:40:04.203Z,96843.30
2018-07-25T23:42:33.801Z,96840.94
2018-07-25T23:45:03.350Z,96841.55
2018-07-25T23:47:32.527Z,96841.41
2018-07-25T23:50:01.711Z,96837.13
2018-07-25T23:52:31.083Z,96832.02
2018-07-25T23:55:00.315Z,96828.45
2018-07-25T23:57:29.507Z,96830.01
2018-07-25T23:59:58.719Z,96826.01
